sensor_id;sensor_type;location;lat;lon;timestamp;P1;durP1;ratioP1;P2;durP2;ratioP2
39128;SDS011;24864;49.940;19.770;2023-02-27T00:02:12;46.63;;;21.85;;
39128;SDS011;24864;49.940;19.770;2023-02-27T00:04:40;47.75;;;22.95;;
39128;SDS011;24864;49.940;19.770;2023-02-27T00:07:08;44.47;;;22.65;;
39128;SDS011;24864;49.940;19.770;2023-02-27T00:09:36;51.28;;;22.35;;
39128;SDS011;24864;49.940;19.770;2023-02-27T00:12:06;49.67;;;22.35;;
39128;SDS011;24864;49.940;19.770;2023-02-27T00:14:34;46.70;;;22.48;;
39128;SDS011;24864;49.940;19.770;2023-02-27T00:17:03;49.22;;;21.58;;
39128;SDS011;24864;49.940;19.770;2023-02-27T00:19:32;47.78;;;22.00;;
39128;SDS011;24864;49.940;19.770;2023-02-27T00:22:00;48.95;;;21.55;;
39128;SDS011;24864;49.940;19.770;2023-02-27T00:24:28;42.25;;;20.42;;
39128;SDS011;24864;49.940;19.770;2023-02-27T00:26:56;51.55;;;22.38;;
39128;SDS011;24864;49.940;19.770;2023-02-27T00:29:25;48.13;;;22.15;;
39128;SDS011;24864;49.940;19.770;2023-02-27T00:31:53;46.60;;;21.45;;
39128;SDS011;24864;49.940;19.770;2023-02-27T00:34:21;46.15;;;22.88;;
39128;SDS011;24864;49.940;19.770;2023-02-27T00:36:51;50.95;;;22.27;;
39128;SDS011;24864;49.940;19.770;2023-02-27T00:39:19;55.65;;;22.60;;
39128;SDS011;24864;49.940;19.770;2023-02-27T00:41:47;48.13;;;22.20;;
39128;SDS011;24864;49.940;19.770;2023-02-27T00:44:15;50.85;;;22.25;;
39128;SDS011;24864;49.940;19.770;2023-02-27T00:46:43;47.25;;;20.67;;
39128;SDS011;24864;49.940;19.770;2023-02-27T00:49:12;50.20;;;22.55;;
39128;SDS011;24864;49.940;19.770;2023-02-27T00:51:40;48.33;;;21.75;;
39128;SDS011;24864;49.940;19.770;2023-02-27T00:54:09;37.03;;;17.63;;
39128;SDS011;24864;49.940;19.770;2023-02-27T00:56:37;40.95;;;15.55;;
39128;SDS011;24864;49.940;19.770;2023-02-27T00:59:06;37.95;;;18.05;;
39128;SDS011;24864;49.940;19.770;2023-02-27T01:01:34;32.78;;;16.92;;
39128;SDS011;24864;49.940;19.770;2023-02-27T01:04:03;32.60;;;16.77;;
39128;SDS011;24864;49.940;19.770;2023-02-27T01:06:31;35.85;;;16.67;;
39128;SDS011;24864;49.940;19.770;2023-02-27T01:08:59;30.52;;;15.85;;
39128;SDS011;24864;49.940;19.770;2023-02-27T01:11:29;38.95;;;18.33;;
39128;SDS011;24864;49.940;19.770;2023-02-27T01:13:57;37.88;;;17.38;;
39128;SDS011;24864;49.940;19.770;2023-02-27T01:16:25;34.13;;;15.52;;
39128;SDS011;24864;49.940;19.770;2023-02-27T01:18:54;32.53;;;14.88;;
39128;SDS011;24864;49.940;19.770;2023-02-27T01:21:22;30.95;;;15.75;;
39128;SDS011;24864;49.940;19.770;2023-02-27T01:23:51;33.33;;;15.20;;
39128;SDS011;24864;49.940;19.770;2023-02-27T01:26:20;30.73;;;12.88;;
39128;SDS011;24864;49.940;19.770;2023-02-27T01:28:49;34.22;;;13.52;;
39128;SDS011;24864;49.940;19.770;2023-02-27T01:31:17;29.50;;;14.10;;
39128;SDS011;24864;49.940;19.770;2023-02-27T01:33:45;32.72;;;13.02;;
39128;SDS011;24864;49.940;19.770;2023-02-27T01:36:15;32.85;;;14.68;;
39128;SDS011;24864;49.940;19.770;2023-02-27T01:38:43;32.85;;;11.95;;
39128;SDS011;24864;49.940;19.770;2023-02-27T01:41:11;25.98;;;12.70;;
39128;SDS011;24864;49.940;19.770;2023-02-27T01:43:57;21.60;;;10.80;;
39128;SDS011;24864;49.940;19.770;2023-02-27T01:46:27;24.05;;;12.00;;
39128;SDS011;24864;49.940;19.770;2023-02-27T01:48:56;25.52;;;11.05;;
39128;SDS011;24864;49.940;19.770;2023-02-27T01:51:29;22.13;;;11.23;;
39128;SDS011;24864;49.940;19.770;2023-02-27T01:53:58;25.13;;;10.38;;
39128;SDS011;24864;49.940;19.770;2023-02-27T01:56:28;22.98;;;8.63;;
39128;SDS011;24864;49.940;19.770;2023-02-27T01:58:59;21.92;;;10.13;;
39128;SDS011;24864;49.940;19.770;2023-02-27T02:01:29;19.17;;;9.38;;
39128;SDS011;24864;49.940;19.770;2023-02-27T02:04:05;22.25;;;8.98;;
39128;SDS011;24864;49.940;19.770;2023-02-27T02:06:38;22.88;;;8.55;;
39128;SDS011;24864;49.940;19.770;2023-02-27T02:09:08;18.42;;;8.75;;
39128;SDS011;24864;49.940;19.770;2023-02-27T02:11:37;15.30;;;8.55;;
39128;SDS011;24864;49.940;19.770;2023-02-27T02:14:07;18.02;;;7.97;;
39128;SDS011;24864;49.940;19.770;2023-02-27T02:16:43;18.35;;;7.70;;
39128;SDS011;24864;49.940;19.770;2023-02-27T02:19:27;16.50;;;7.20;;
39128;SDS011;24864;49.940;19.770;2023-02-27T02:22:23;17.90;;;7.53;;
39128;SDS011;24864;49.940;19.770;2023-02-27T02:25:26;18.73;;;7.35;;
39128;SDS011;24864;49.940;19.770;2023-02-27T02:28:09;13.25;;;6.53;;
39128;SDS011;24864;49.940;19.770;2023-02-27T02:33:46;13.55;;;6.55;;
39128;SDS011;24864;49.940;19.770;2023-02-27T02:36:44;13.63;;;5.97;;
39128;SDS011;24864;49.940;19.770;2023-02-27T02:39:45;15.80;;;5.68;;
39128;SDS011;24864;49.940;19.770;2023-02-27T02:42:22;16.15;;;5.32;;
39128;SDS011;24864;49.940;19.770;2023-02-27T02:44:55;18.65;;;5.18;;
39128;SDS011;24864;49.940;19.770;2023-02-27T02:47:30;10.32;;;5.40;;
39128;SDS011;24864;49.940;19.770;2023-02-27T02:50:04;16.40;;;5.68;;
39128;SDS011;24864;49.940;19.770;2023-02-27T02:52:38;12.77;;;4.82;;
39128;SDS011;24864;49.940;19.770;2023-02-27T02:55:13;9.23;;;4.22;;
39128;SDS011;24864;49.940;19.770;2023-02-27T02:57:46;9.25;;;4.13;;
39128;SDS011;24864;49.940;19.770;2023-02-27T03:00:17;11.35;;;4.28;;
39128;SDS011;24864;49.940;19.770;2023-02-27T03:02:47;10.65;;;3.88;;
39128;SDS011;24864;49.940;19.770;2023-02-27T03:05:19;11.63;;;3.80;;
39128;SDS011;24864;49.940;19.770;2023-02-27T03:07:51;8.00;;;3.40;;
39128;SDS011;24864;49.940;19.770;2023-02-27T03:10:25;12.98;;;3.05;;
39128;SDS011;24864;49.940;19.770;2023-02-27T03:12:56;8.60;;;3.22;;
39128;SDS011;24864;49.940;19.770;2023-02-27T03:15:29;15.68;;;2.80;;
39128;SDS011;24864;49.940;19.770;2023-02-27T03:18:00;5.07;;;2.53;;
39128;SDS011;24864;49.940;19.770;2023-02-27T03:20:33;9.43;;;2.75;;
39128;SDS011;24864;49.940;19.770;2023-02-27T03:23:05;6.50;;;2.45;;
39128;SDS011;24864;49.940;19.770;2023-02-27T03:25:37;5.93;;;2.28;;
39128;SDS011;24864;49.940;19.770;2023-02-27T03:28:07;5.95;;;2.50;;
39128;SDS011;24864;49.940;19.770;2023-02-27T03:30:38;6.57;;;2.28;;
39128;SDS011;24864;49.940;19.770;2023-02-27T03:33:09;6.32;;;1.80;;
39128;SDS011;24864;49.940;19.770;2023-02-27T03:38:11;6.47;;;2.65;;
39128;SDS011;24864;49.940;19.770;2023-02-27T03:40:46;6.93;;;1.92;;
39128;SDS011;24864;49.940;19.770;2023-02-27T03:43:20;5.50;;;2.15;;
39128;SDS011;24864;49.940;19.770;2023-02-27T03:45:54;4.07;;;1.88;;
39128;SDS011;24864;49.940;19.770;2023-02-27T03:48:26;7.47;;;2.33;;
39128;SDS011;24864;49.940;19.770;2023-02-27T03:50:54;6.10;;;2.55;;
39128;SDS011;24864;49.940;19.770;2023-02-27T03:53:24;6.45;;;2.50;;
39128;SDS011;24864;49.940;19.770;2023-02-27T03:58:24;4.25;;;2.40;;
39128;SDS011;24864;49.940;19.770;2023-02-27T04:00:53;5.78;;;2.50;;
39128;SDS011;24864;49.940;19.770;2023-02-27T04:03:21;4.70;;;2.25;;
39128;SDS011;24864;49.940;19.770;2023-02-27T04:05:49;8.13;;;2.70;;
39128;SDS011;24864;49.940;19.770;2023-02-27T04:08:29;9.93;;;2.38;;
39128;SDS011;24864;49.940;19.770;2023-02-27T04:11:10;2.45;;;1.27;;
39128;SDS011;24864;49.940;19.770;2023-02-27T04:13:50;3.92;;;1.88;;
39128;SDS011;24864;49.940;19.770;2023-02-27T04:19:34;6.28;;;2.10;;
39128;SDS011;24864;49.940;19.770;2023-02-27T04:22:17;4.55;;;1.42;;
39128;SDS011;24864;49.940;19.770;2023-02-27T04:24:54;2.72;;;1.17;;
39128;SDS011;24864;49.940;19.770;2023-02-27T04:27:30;4.40;;;1.20;;
39128;SDS011;24864;49.940;19.770;2023-02-27T04:30:04;3.17;;;1.10;;
39128;SDS011;24864;49.940;19.770;2023-02-27T04:32:42;3.25;;;1.33;;
39128;SDS011;24864;49.940;19.770;2023-02-27T04:35:13;6.50;;;1.50;;
39128;SDS011;24864;49.940;19.770;2023-02-27T04:37:46;4.82;;;1.23;;
39128;SDS011;24864;49.940;19.770;2023-02-27T04:42:48;8.20;;;1.45;;
39128;SDS011;24864;49.940;19.770;2023-02-27T04:45:21;2.03;;;1.10;;
39128;SDS011;24864;49.940;19.770;2023-02-27T04:47:51;2.28;;;1.25;;
39128;SDS011;24864;49.940;19.770;2023-02-27T04:50:22;5.20;;;1.30;;
39128;SDS011;24864;49.940;19.770;2023-02-27T04:52:54;6.17;;;1.40;;
39128;SDS011;24864;49.940;19.770;2023-02-27T04:55:25;6.82;;;1.40;;
39128;SDS011;24864;49.940;19.770;2023-02-27T04:57:58;5.80;;;1.20;;
39128;SDS011;24864;49.940;19.770;2023-02-27T05:00:29;5.00;;;1.27;;
39128;SDS011;24864;49.940;19.770;2023-02-27T05:03:00;6.88;;;1.63;;
39128;SDS011;24864;49.940;19.770;2023-02-27T05:05:30;2.88;;;1.17;;
39128;SDS011;24864;49.940;19.770;2023-02-27T05:08:01;3.95;;;1.13;;
39128;SDS011;24864;49.940;19.770;2023-02-27T05:10:33;4.57;;;2.00;;
39128;SDS011;24864;49.940;19.770;2023-02-27T05:13:05;6.17;;;1.83;;
39128;SDS011;24864;49.940;19.770;2023-02-27T05:15:39;11.05;;;4.38;;
39128;SDS011;24864;49.940;19.770;2023-02-27T05:18:11;8.98;;;3.38;;
39128;SDS011;24864;49.940;19.770;2023-02-27T05:20:42;8.02;;;3.60;;
39128;SDS011;24864;49.940;19.770;2023-02-27T05:23:19;6.80;;;3.55;;
39128;SDS011;24864;49.940;19.770;2023-02-27T05:25:51;4.78;;;1.90;;
39128;SDS011;24864;49.940;19.770;2023-02-27T05:28:25;5.47;;;2.13;;
39128;SDS011;24864;49.940;19.770;2023-02-27T05:31:02;5.38;;;2.00;;
39128;SDS011;24864;49.940;19.770;2023-02-27T05:33:34;4.15;;;1.92;;
39128;SDS011;24864;49.940;19.770;2023-02-27T05:36:06;14.45;;;5.90;;
39128;SDS011;24864;49.940;19.770;2023-02-27T05:38:39;9.77;;;5.13;;
39128;SDS011;24864;49.940;19.770;2023-02-27T05:41:09;9.20;;;2.60;;
39128;SDS011;24864;49.940;19.770;2023-02-27T05:43:41;6.60;;;2.13;;
39128;SDS011;24864;49.940;19.770;2023-02-27T05:46:12;4.90;;;1.50;;
39128;SDS011;24864;49.940;19.770;2023-02-27T05:48:51;10.15;;;5.18;;
39128;SDS011;24864;49.940;19.770;2023-02-27T05:51:21;7.10;;;3.90;;
39128;SDS011;24864;49.940;19.770;2023-02-27T05:53:52;13.93;;;3.53;;
39128;SDS011;24864;49.940;19.770;2023-02-27T05:56:24;8.38;;;4.95;;
39128;SDS011;24864;49.940;19.770;2023-02-27T05:58:56;14.90;;;5.30;;
39128;SDS011;24864;49.940;19.770;2023-02-27T06:01:27;14.15;;;2.85;;
39128;SDS011;24864;49.940;19.770;2023-02-27T06:03:55;11.38;;;2.88;;
39128;SDS011;24864;49.940;19.770;2023-02-27T06:06:23;10.57;;;3.40;;
39128;SDS011;24864;49.940;19.770;2023-02-27T06:08:53;9.68;;;3.05;;
39128;SDS011;24864;49.940;19.770;2023-02-27T06:11:21;9.98;;;4.30;;
39128;SDS011;24864;49.940;19.770;2023-02-27T06:13:49;18.25;;;5.95;;
39128;SDS011;24864;49.940;19.770;2023-02-27T06:16:19;12.65;;;4.63;;
39128;SDS011;24864;49.940;19.770;2023-02-27T06:18:47;14.43;;;5.20;;
39128;SDS011;24864;49.940;19.770;2023-02-27T06:21:15;9.95;;;4.40;;
39128;SDS011;24864;49.940;19.770;2023-02-27T06:23:43;7.32;;;2.78;;
39128;SDS011;24864;49.940;19.770;2023-02-27T06:26:11;4.97;;;2.38;;
39128;SDS011;24864;49.940;19.770;2023-02-27T06:28:40;4.25;;;2.10;;
39128;SDS011;24864;49.940;19.770;2023-02-27T06:31:08;6.45;;;2.05;;
39128;SDS011;24864;49.940;19.770;2023-02-27T06:33:38;6.13;;;1.98;;
39128;SDS011;24864;49.940;19.770;2023-02-27T06:36:06;13.13;;;2.05;;
39128;SDS011;24864;49.940;19.770;2023-02-27T06:38:34;7.97;;;1.85;;
39128;SDS011;24864;49.940;19.770;2023-02-27T06:41:02;6.30;;;2.03;;
39128;SDS011;24864;49.940;19.770;2023-02-27T06:43:31;5.32;;;2.00;;
39128;SDS011;24864;49.940;19.770;2023-02-27T06:46:00;6.53;;;1.80;;
39128;SDS011;24864;49.940;19.770;2023-02-27T06:48:29;7.78;;;2.10;;
39128;SDS011;24864;49.940;19.770;2023-02-27T06:50:58;6.88;;;2.67;;
39128;SDS011;24864;49.940;19.770;2023-02-27T06:53:27;6.50;;;2.42;;
39128;SDS011;24864;49.940;19.770;2023-02-27T06:55:55;8.43;;;2.78;;
39128;SDS011;24864;49.940;19.770;2023-02-27T06:58:24;11.75;;;2.30;;
39128;SDS011;24864;49.940;19.770;2023-02-27T07:00:52;9.13;;;2.60;;
39128;SDS011;24864;49.940;19.770;2023-02-27T07:03:20;9.15;;;2.60;;
39128;SDS011;24864;49.940;19.770;2023-02-27T07:05:48;5.80;;;2.47;;
39128;SDS011;24864;49.940;19.770;2023-02-27T07:08:18;7.75;;;3.08;;
39128;SDS011;24864;49.940;19.770;2023-02-27T07:10:46;9.38;;;2.80;;
39128;SDS011;24864;49.940;19.770;2023-02-27T07:13:14;13.77;;;4.25;;
39128;SDS011;24864;49.940;19.770;2023-02-27T07:15:45;10.32;;;3.70;;
39128;SDS011;24864;49.940;19.770;2023-02-27T07:18:13;9.25;;;3.53;;
39128;SDS011;24864;49.940;19.770;2023-02-27T07:20:41;10.57;;;3.70;;
39128;SDS011;24864;49.940;19.770;2023-02-27T07:23:09;9.55;;;3.53;;
39128;SDS011;24864;49.940;19.770;2023-02-27T07:25:39;13.52;;;4.35;;
39128;SDS011;24864;49.940;19.770;2023-02-27T07:28:07;16.25;;;4.72;;
39128;SDS011;24864;49.940;19.770;2023-02-27T07:30:35;11.68;;;4.55;;
39128;SDS011;24864;49.940;19.770;2023-02-27T07:33:03;10.73;;;4.10;;
39128;SDS011;24864;49.940;19.770;2023-02-27T07:35:32;12.23;;;4.70;;
39128;SDS011;24864;49.940;19.770;2023-02-27T07:38:00;17.67;;;4.97;;
39128;SDS011;24864;49.940;19.770;2023-02-27T07:40:28;15.05;;;5.22;;
39128;SDS011;24864;49.940;19.770;2023-02-27T07:42:58;19.65;;;5.20;;
39128;SDS011;24864;49.940;19.770;2023-02-27T07:45:26;15.07;;;4.80;;
39128;SDS011;24864;49.940;19.770;2023-02-27T07:47:55;12.90;;;4.43;;
39128;SDS011;24864;49.940;19.770;2023-02-27T07:50:23;14.77;;;6.72;;
39128;SDS011;24864;49.940;19.770;2023-02-27T07:52:51;18.15;;;7.20;;
39128;SDS011;24864;49.940;19.770;2023-02-27T07:55:19;13.82;;;5.55;;
39128;SDS011;24864;49.940;19.770;2023-02-27T07:57:47;12.35;;;5.13;;
39128;SDS011;24864;49.940;19.770;2023-02-27T08:00:17;13.48;;;4.80;;
39128;SDS011;24864;49.940;19.770;2023-02-27T08:02:46;12.95;;;6.65;;
39128;SDS011;24864;49.940;19.770;2023-02-27T08:05:14;18.48;;;7.45;;
39128;SDS011;24864;49.940;19.770;2023-02-27T08:07:43;13.93;;;7.13;;
39128;SDS011;24864;49.940;19.770;2023-02-27T08:10:11;21.52;;;7.88;;
39128;SDS011;24864;49.940;19.770;2023-02-27T08:12:41;23.77;;;9.60;;
39128;SDS011;24864;49.940;19.770;2023-02-27T08:15:10;15.57;;;6.68;;
39128;SDS011;24864;49.940;19.770;2023-02-27T08:17:39;22.23;;;7.82;;
39128;SDS011;24864;49.940;19.770;2023-02-27T08:20:08;14.85;;;4.43;;
39128;SDS011;24864;49.940;19.770;2023-02-27T08:22:38;12.98;;;5.20;;
39128;SDS011;24864;49.940;19.770;2023-02-27T08:25:07;17.60;;;6.95;;
39128;SDS011;24864;49.940;19.770;2023-02-27T08:27:37;15.32;;;6.50;;
39128;SDS011;24864;49.940;19.770;2023-02-27T08:30:07;17.38;;;8.38;;
39128;SDS011;24864;49.940;19.770;2023-02-27T08:32:36;11.50;;;4.97;;
39128;SDS011;24864;49.940;19.770;2023-02-27T08:35:06;16.33;;;6.40;;
39128;SDS011;24864;49.940;19.770;2023-02-27T08:37:35;9.50;;;3.58;;
39128;SDS011;24864;49.940;19.770;2023-02-27T08:40:04;13.02;;;4.65;;
39128;SDS011;24864;49.940;19.770;2023-02-27T08:42:36;10.73;;;3.92;;
39128;SDS011;24864;49.940;19.770;2023-02-27T08:45:04;8.25;;;3.30;;
39128;SDS011;24864;49.940;19.770;2023-02-27T08:47:33;9.48;;;3.78;;
39128;SDS011;24864;49.940;19.770;2023-02-27T08:50:02;8.95;;;3.33;;
39128;SDS011;24864;49.940;19.770;2023-02-27T08:52:33;8.23;;;3.42;;
39128;SDS011;24864;49.940;19.770;2023-02-27T08:55:01;8.10;;;3.20;;
39128;SDS011;24864;49.940;19.770;2023-02-27T08:57:30;5.65;;;2.30;;
39128;SDS011;24864;49.940;19.770;2023-02-27T08:59:58;6.20;;;3.13;;
39128;SDS011;24864;49.940;19.770;2023-02-27T09:02:26;7.07;;;3.33;;
39128;SDS011;24864;49.940;19.770;2023-02-27T09:04:54;10.82;;;2.83;;
39128;SDS011;24864;49.940;19.770;2023-02-27T09:07:22;10.65;;;3.40;;
39128;SDS011;24864;49.940;19.770;2023-02-27T09:09:52;9.15;;;3.13;;
39128;SDS011;24864;49.940;19.770;2023-02-27T09:12:20;5.25;;;3.05;;
39128;SDS011;24864;49.940;19.770;2023-02-27T09:14:48;6.18;;;2.95;;
39128;SDS011;24864;49.940;19.770;2023-02-27T09:17:16;7.65;;;2.83;;
39128;SDS011;24864;49.940;19.770;2023-02-27T09:19:45;7.00;;;3.33;;
39128;SDS011;24864;49.940;19.770;2023-02-27T09:22:13;11.45;;;6.05;;
39128;SDS011;24864;49.940;19.770;2023-02-27T09:24:41;6.10;;;3.58;;
39128;SDS011;24864;49.940;19.770;2023-02-27T09:27:11;10.05;;;4.03;;
39128;SDS011;24864;49.940;19.770;2023-02-27T09:29:39;18.02;;;7.53;;
39128;SDS011;24864;49.940;19.770;2023-02-27T09:32:08;19.48;;;5.78;;
39128;SDS011;24864;49.940;19.770;2023-02-27T09:34:37;14.98;;;7.00;;
39128;SDS011;24864;49.940;19.770;2023-02-27T09:37:05;7.70;;;3.20;;
39128;SDS011;24864;49.940;19.770;2023-02-27T09:39:33;6.43;;;2.80;;
39128;SDS011;24864;49.940;19.770;2023-02-27T09:42:02;6.40;;;2.70;;
39128;SDS011;24864;49.940;19.770;2023-02-27T09:44:35;5.70;;;2.90;;
39128;SDS011;24864;49.940;19.770;2023-02-27T09:47:14;6.78;;;2.33;;
39128;SDS011;24864;49.940;19.770;2023-02-27T09:49:46;6.35;;;2.47;;
39128;SDS011;24864;49.940;19.770;2023-02-27T09:52:20;5.07;;;2.28;;
39128;SDS011;24864;49.940;19.770;2023-02-27T09:54:48;18.55;;;8.02;;
39128;SDS011;24864;49.940;19.770;2023-02-27T09:57:17;10.55;;;2.10;;
39128;SDS011;24864;49.940;19.770;2023-02-27T09:59:50;3.17;;;1.60;;
39128;SDS011;24864;49.940;19.770;2023-02-27T10:02:27;3.38;;;1.95;;
39128;SDS011;24864;49.940;19.770;2023-02-27T10:05:01;6.47;;;3.53;;
39128;SDS011;24864;49.940;19.770;2023-02-27T10:07:35;7.10;;;4.10;;
39128;SDS011;24864;49.940;19.770;2023-02-27T10:10:08;12.10;;;5.63;;
39128;SDS011;24864;49.940;19.770;2023-02-27T10:15:42;6.22;;;2.25;;
39128;SDS011;24864;49.940;19.770;2023-02-27T10:18:15;7.15;;;2.10;;
39128;SDS011;24864;49.940;19.770;2023-02-27T10:20:54;6.40;;;1.80;;
39128;SDS011;24864;49.940;19.770;2023-02-27T10:23:26;2.92;;;1.75;;
39128;SDS011;24864;49.940;19.770;2023-02-27T10:25:58;8.60;;;3.33;;
39128;SDS011;24864;49.940;19.770;2023-02-27T10:28:28;8.05;;;3.50;;
39128;SDS011;24864;49.940;19.770;2023-02-27T10:30:57;9.38;;;3.80;;
39128;SDS011;24864;49.940;19.770;2023-02-27T10:33:30;6.35;;;2.00;;
39128;SDS011;24864;49.940;19.770;2023-02-27T10:36:00;7.03;;;3.38;;
39128;SDS011;24864;49.940;19.770;2023-02-27T10:38:31;9.18;;;3.03;;
39128;SDS011;24864;49.940;19.770;2023-02-27T10:41:00;12.60;;;5.82;;
39128;SDS011;24864;49.940;19.770;2023-02-27T10:43:29;4.72;;;2.40;;
39128;SDS011;24864;49.940;19.770;2023-02-27T10:46:00;9.23;;;3.50;;
39128;SDS011;24864;49.940;19.770;2023-02-27T10:48:30;14.95;;;5.05;;
39128;SDS011;24864;49.940;19.770;2023-02-27T10:53:50;6.32;;;2.10;;
39128;SDS011;24864;49.940;19.770;2023-02-27T10:56:21;10.98;;;2.95;;
39128;SDS011;24864;49.940;19.770;2023-02-27T10:59:02;6.85;;;2.80;;
39128;SDS011;24864;49.940;19.770;2023-02-27T11:01:40;6.25;;;3.70;;
39128;SDS011;24864;49.940;19.770;2023-02-27T11:04:10;8.05;;;4.10;;
39128;SDS011;24864;49.940;19.770;2023-02-27T11:06:39;8.50;;;4.90;;
39128;SDS011;24864;49.940;19.770;2023-02-27T11:09:09;6.55;;;2.60;;
39128;SDS011;24864;49.940;19.770;2023-02-27T11:11:38;8.75;;;5.40;;
39128;SDS011;24864;49.940;19.770;2023-02-27T11:14:14;9.23;;;3.30;;
39128;SDS011;24864;49.940;19.770;2023-02-27T11:16:52;6.53;;;2.67;;
39128;SDS011;24864;49.940;19.770;2023-02-27T11:19:28;4.75;;;3.00;;
39128;SDS011;24864;49.940;19.770;2023-02-27T11:21:59;6.60;;;2.80;;
39128;SDS011;24864;49.940;19.770;2023-02-27T11:24:32;11.05;;;3.70;;
39128;SDS011;24864;49.940;19.770;2023-02-27T11:27:01;9.27;;;3.67;;
39128;SDS011;24864;49.940;19.770;2023-02-27T11:29:32;8.07;;;4.17;;
39128;SDS011;24864;49.940;19.770;2023-02-27T11:32:03;9.43;;;5.18;;
39128;SDS011;24864;49.940;19.770;2023-02-27T11:34:38;7.35;;;4.63;;
39128;SDS011;24864;49.940;19.770;2023-02-27T11:37:08;11.45;;;4.85;;
39128;SDS011;24864;49.940;19.770;2023-02-27T11:39:48;11.57;;;4.40;;
39128;SDS011;24864;49.940;19.770;2023-02-27T11:42:19;9.20;;;4.88;;
39128;SDS011;24864;49.940;19.770;2023-02-27T11:44:52;10.23;;;5.50;;
39128;SDS011;24864;49.940;19.770;2023-02-27T11:47:26;12.63;;;5.25;;
39128;SDS011;24864;49.940;19.770;2023-02-27T11:52:51;9.18;;;4.85;;
39128;SDS011;24864;49.940;19.770;2023-02-27T11:55:21;9.18;;;4.45;;
39128;SDS011;24864;49.940;19.770;2023-02-27T11:57:51;12.15;;;4.47;;
39128;SDS011;24864;49.940;19.770;2023-02-27T12:00:24;125.50;;;47.78;;
39128;SDS011;24864;49.940;19.770;2023-02-27T12:02:57;11.07;;;6.88;;
39128;SDS011;24864;49.940;19.770;2023-02-27T12:05:30;31.15;;;13.70;;
39128;SDS011;24864;49.940;19.770;2023-02-27T12:08:01;13.52;;;6.70;;
39128;SDS011;24864;49.940;19.770;2023-02-27T12:10:34;65.65;;;25.15;;
39128;SDS011;24864;49.940;19.770;2023-02-27T12:13:05;32.38;;;13.68;;
39128;SDS011;24864;49.940;19.770;2023-02-27T12:15:41;30.13;;;14.05;;
39128;SDS011;24864;49.940;19.770;2023-02-27T12:20:44;31.40;;;15.27;;
39128;SDS011;24864;49.940;19.770;2023-02-27T12:23:18;44.80;;;15.30;;
39128;SDS011;24864;49.940;19.770;2023-02-27T12:25:51;58.05;;;20.63;;
39128;SDS011;24864;49.940;19.770;2023-02-27T12:28:25;26.27;;;9.90;;
39128;SDS011;24864;49.940;19.770;2023-02-27T12:31:06;25.20;;;10.48;;
39128;SDS011;24864;49.940;19.770;2023-02-27T12:33:49;10.95;;;5.28;;
39128;SDS011;24864;49.940;19.770;2023-02-27T12:36:22;8.48;;;4.90;;
39128;SDS011;24864;49.940;19.770;2023-02-27T12:38:50;11.32;;;4.78;;
39128;SDS011;24864;49.940;19.770;2023-02-27T12:41:24;12.45;;;5.40;;
39128;SDS011;24864;49.940;19.770;2023-02-27T12:44:12;12.68;;;5.57;;
39128;SDS011;24864;49.940;19.770;2023-02-27T12:46:51;8.88;;;3.97;;
39128;SDS011;24864;49.940;19.770;2023-02-27T12:49:30;9.75;;;5.40;;
39128;SDS011;24864;49.940;19.770;2023-02-27T12:52:04;11.95;;;5.40;;
39128;SDS011;24864;49.940;19.770;2023-02-27T12:54:46;14.57;;;6.78;;
39128;SDS011;24864;49.940;19.770;2023-02-27T12:57:26;14.52;;;7.70;;
39128;SDS011;24864;49.940;19.770;2023-02-27T13:00:10;12.52;;;6.60;;
39128;SDS011;24864;49.940;19.770;2023-02-27T13:02:52;18.15;;;6.13;;
39128;SDS011;24864;49.940;19.770;2023-02-27T13:05:28;10.77;;;6.25;;
39128;SDS011;24864;49.940;19.770;2023-02-27T13:08:16;12.95;;;6.22;;
39128;SDS011;24864;49.940;19.770;2023-02-27T13:11:05;16.15;;;6.22;;
39128;SDS011;24864;49.940;19.770;2023-02-27T13:13:37;16.48;;;6.80;;
39128;SDS011;24864;49.940;19.770;2023-02-27T13:16:09;12.77;;;6.25;;
39128;SDS011;24864;49.940;19.770;2023-02-27T13:18:42;10.90;;;6.72;;
39128;SDS011;24864;49.940;19.770;2023-02-27T13:21:14;15.40;;;6.50;;
39128;SDS011;24864;49.940;19.770;2023-02-27T13:23:52;15.43;;;6.40;;
39128;SDS011;24864;49.940;19.770;2023-02-27T13:26:29;14.63;;;6.53;;
39128;SDS011;24864;49.940;19.770;2023-02-27T13:28:59;12.52;;;6.05;;
39128;SDS011;24864;49.940;19.770;2023-02-27T13:31:31;11.60;;;5.78;;
39128;SDS011;24864;49.940;19.770;2023-02-27T13:34:06;11.50;;;6.35;;
39128;SDS011;24864;49.940;19.770;2023-02-27T13:36:41;13.27;;;6.40;;
39128;SDS011;24864;49.940;19.770;2023-02-27T13:51:44;13.38;;;6.35;;
39128;SDS011;24864;49.940;19.770;2023-02-27T13:57:07;13.02;;;6.28;;
39128;SDS011;24864;49.940;19.770;2023-02-27T14:02:44;15.32;;;7.65;;
39128;SDS011;24864;49.940;19.770;2023-02-27T14:08:00;12.35;;;6.35;;
39128;SDS011;24864;49.940;19.770;2023-02-27T14:10:36;11.93;;;6.13;;
39128;SDS011;24864;49.940;19.770;2023-02-27T14:13:32;17.20;;;7.43;;
39128;SDS011;24864;49.940;19.770;2023-02-27T14:19:27;12.82;;;6.85;;
39128;SDS011;24864;49.940;19.770;2023-02-27T14:25:22;12.82;;;7.10;;
39128;SDS011;24864;49.940;19.770;2023-02-27T14:27:54;14.63;;;7.15;;
39128;SDS011;24864;49.940;19.770;2023-02-27T14:30:25;14.73;;;6.45;;
39128;SDS011;24864;49.940;19.770;2023-02-27T14:32:57;15.23;;;6.07;;
39128;SDS011;24864;49.940;19.770;2023-02-27T14:35:28;14.45;;;6.25;;
39128;SDS011;24864;49.940;19.770;2023-02-27T14:37:57;12.85;;;6.80;;
39128;SDS011;24864;49.940;19.770;2023-02-27T14:40:30;21.13;;;7.57;;
39128;SDS011;24864;49.940;19.770;2023-02-27T14:43:03;15.95;;;7.40;;
39128;SDS011;24864;49.940;19.770;2023-02-27T14:45:35;12.38;;;6.78;;
39128;SDS011;24864;49.940;19.770;2023-02-27T14:48:06;21.55;;;10.43;;
39128;SDS011;24864;49.940;19.770;2023-02-27T14:50:37;23.13;;;13.02;;
39128;SDS011;24864;49.940;19.770;2023-02-27T14:53:19;38.03;;;17.83;;
39128;SDS011;24864;49.940;19.770;2023-02-27T15:00:56;98.95;;;32.20;;
39128;SDS011;24864;49.940;19.770;2023-02-27T15:03:31;146.55;;;49.92;;
39128;SDS011;24864;49.940;19.770;2023-02-27T15:06:02;47.80;;;18.73;;
39128;SDS011;24864;49.940;19.770;2023-02-27T15:08:33;39.95;;;16.83;;
39128;SDS011;24864;49.940;19.770;2023-02-27T15:11:06;217.95;;;74.30;;
39128;SDS011;24864;49.940;19.770;2023-02-27T15:13:36;23.95;;;11.27;;
39128;SDS011;24864;49.940;19.770;2023-02-27T15:16:18;16.85;;;9.10;;
39128;SDS011;24864;49.940;19.770;2023-02-27T15:18:48;20.25;;;7.88;;
39128;SDS011;24864;49.940;19.770;2023-02-27T15:21:17;17.35;;;7.78;;
39128;SDS011;24864;49.940;19.770;2023-02-27T15:23:52;21.67;;;9.25;;
39128;SDS011;24864;49.940;19.770;2023-02-27T15:26:22;40.30;;;19.55;;
39128;SDS011;24864;49.940;19.770;2023-02-27T15:28:51;34.42;;;16.52;;
39128;SDS011;24864;49.940;19.770;2023-02-27T15:31:20;23.02;;;12.60;;
39128;SDS011;24864;49.940;19.770;2023-02-27T15:33:53;21.60;;;10.60;;
39128;SDS011;24864;49.940;19.770;2023-02-27T15:36:22;28.83;;;15.63;;
39128;SDS011;24864;49.940;19.770;2023-02-27T15:39:02;38.17;;;18.67;;
39128;SDS011;24864;49.940;19.770;2023-02-27T15:41:34;33.08;;;17.20;;
39128;SDS011;24864;49.940;19.770;2023-02-27T15:44:02;31.15;;;16.73;;
39128;SDS011;24864;49.940;19.770;2023-02-27T15:46:31;20.55;;;11.38;;
39128;SDS011;24864;49.940;19.770;2023-02-27T15:48:59;28.92;;;15.10;;